sensor_id;sensor_type;location;lat;lon;timestamp;temperature;humidity
14893;DHT22;7538;53.626;9.906;2023-08-21T00:02:10;18.30;99.90
14893;DHT22;7538;53.626;9.906;2023-08-21T00:04:37;18.30;99.90
14893;DHT22;7538;53.626;9.906;2023-08-21T00:07:04;18.30;99.90
14893;DHT22;7538;53.626;9.906;2023-08-21T00:09:33;18.20;99.90
14893;DHT22;7538;53.626;9.906;2023-08-21T00:12:00;18.20;99.90
14893;DHT22;7538;53.626;9.906;2023-08-21T00:14:26;18.10;99.90
14893;DHT22;7538;53.626;9.906;2023-08-21T00:16:53;18.10;99.90
14893;DHT22;7538;53.626;9.906;2023-08-21T00:19:20;18.10;99.90
14893;DHT22;7538;53.626;9.906;2023-08-21T00:21:47;18.10;99.90
14893;DHT22;7538;53.626;9.906;2023-08-21T00:24:13;18.00;99.90
14893;DHT22;7538;53.626;9.906;2023-08-21T00:26:41;18.00;99.90
14893;DHT22;7538;53.626;9.906;2023-08-21T00:29:08;18.00;99.90
14893;DHT22;7538;53.626;9.906;2023-08-21T00:31:35;18.00;99.90
14893;DHT22;7538;53.626;9.906;2023-08-21T00:34:02;17.90;99.90
14893;DHT22;7538;53.626;9.906;2023-08-21T00:36:29;17.90;99.90
14893;DHT22;7538;53.626;9.906;2023-08-21T00:38:55;17.90;99.90
14893;DHT22;7538;53.626;9.906;2023-08-21T00:41:22;17.80;99.90
14893;DHT22;7538;53.626;9.906;2023-08-21T00:50:24;15.70;99.90
14893;DHT22;7538;53.626;9.906;2023-08-21T00:55:33;17.70;99.90
14893;DHT22;7538;53.626;9.906;2023-08-21T00:58:00;17.70;99.90
14893;DHT22;7538;53.626;9.906;2023-08-21T01:00:29;17.60;99.90
14893;DHT22;7538;53.626;9.906;2023-08-21T01:02:58;17.60;99.90
14893;DHT22;7538;53.626;9.906;2023-08-21T01:05:24;17.60;99.90
14893;DHT22;7538;53.626;9.906;2023-08-21T01:07:57;17.70;99.90
14893;DHT22;7538;53.626;9.906;2023-08-21T01:10:39;17.60;99.90
14893;DHT22;7538;53.626;9.906;2023-08-21T01:13:14;17.50;99.90
14893;DHT22;7538;53.626;9.906;2023-08-21T01:15:46;17.40;99.90
14893;DHT22;7538;53.626;9.906;2023-08-21T01:18:15;17.50;99.90
14893;DHT22;7538;53.626;9.906;2023-08-21T01:20:42;17.40;99.90
14893;DHT22;7538;53.626;9.906;2023-08-21T01:23:09;17.40;99.90
14893;DHT22;7538;53.626;9.906;2023-08-21T01:25:37;17.40;99.90
14893;DHT22;7538;53.626;9.906;2023-08-21T01:28:05;17.40;99.90
14893;DHT22;7538;53.626;9.906;2023-08-21T01:30:33;17.40;99.90
14893;DHT22;7538;53.626;9.906;2023-08-21T01:33:05;17.30;99.90
14893;DHT22;7538;53.626;9.906;2023-08-21T01:35:33;17.30;99.90
14893;DHT22;7538;53.626;9.906;2023-08-21T01:38:02;17.30;99.90
14893;DHT22;7538;53.626;9.906;2023-08-21T01:40:30;19.10;99.90
14893;DHT22;7538;53.626;9.906;2023-08-21T01:42:58;17.30;99.90
14893;DHT22;7538;53.626;9.906;2023-08-21T01:45:25;17.20;99.90
14893;DHT22;7538;53.626;9.906;2023-08-21T01:47:52;17.20;99.90
14893;DHT22;7538;53.626;9.906;2023-08-21T01:50:19;17.20;99.90
14893;DHT22;7538;53.626;9.906;2023-08-21T01:52:46;17.20;99.90
14893;DHT22;7538;53.626;9.906;2023-08-21T01:55:13;17.10;99.90
14893;DHT22;7538;53.626;9.906;2023-08-21T01:57:39;17.20;99.90
14893;DHT22;7538;53.626;9.906;2023-08-21T02:00:10;17.10;99.90
14893;DHT22;7538;53.626;9.906;2023-08-21T02:02:38;17.10;99.90
14893;DHT22;7538;53.626;9.906;2023-08-21T02:05:06;17.10;99.90
14893;DHT22;7538;53.626;9.906;2023-08-21T02:07:33;17.10;99.90
14893;DHT22;7538;53.626;9.906;2023-08-21T02:09:59;17.10;99.90
14893;DHT22;7538;53.626;9.906;2023-08-21T02:12:26;17.00;99.90
14893;DHT22;7538;53.626;9.906;2023-08-21T02:14:53;17.00;99.90
14893;DHT22;7538;53.626;9.906;2023-08-21T02:17:21;17.00;99.90
14893;DHT22;7538;53.626;9.906;2023-08-21T02:19:48;17.00;99.90
14893;DHT22;7538;53.626;9.906;2023-08-21T02:22:15;17.00;99.90
14893;DHT22;7538;53.626;9.906;2023-08-21T02:24:41;17.00;99.90
14893;DHT22;7538;53.626;9.906;2023-08-21T02:27:08;16.90;99.90
14893;DHT22;7538;53.626;9.906;2023-08-21T02:29:35;16.90;99.90
14893;DHT22;7538;53.626;9.906;2023-08-21T02:32:02;16.90;99.90
14893;DHT22;7538;53.626;9.906;2023-08-21T02:34:30;16.90;99.90
14893;DHT22;7538;53.626;9.906;2023-08-21T02:36:57;16.90;99.90
14893;DHT22;7538;53.626;9.906;2023-08-21T02:39:24;16.90;99.90
14893;DHT22;7538;53.626;9.906;2023-08-21T02:41:50;16.90;99.90
14893;DHT22;7538;53.626;9.906;2023-08-21T02:44:17;16.90;99.90
14893;DHT22;7538;53.626;9.906;2023-08-21T02:46:44;16.90;99.90
14893;DHT22;7538;53.626;9.906;2023-08-21T02:49:11;16.90;99.90
14893;DHT22;7538;53.626;9.906;2023-08-21T02:51:39;16.90;99.90
14893;DHT22;7538;53.626;9.906;2023-08-21T02:54:05;16.90;99.90
14893;DHT22;7538;53.626;9.906;2023-08-21T02:56:32;16.90;99.90
14893;DHT22;7538;53.626;9.906;2023-08-21T02:58:59;16.90;99.90
14893;DHT22;7538;53.626;9.906;2023-08-21T03:01:26;16.90;99.90
14893;DHT22;7538;53.626;9.906;2023-08-21T03:03:52;16.90;99.90
14893;DHT22;7538;53.626;9.906;2023-08-21T03:06:19;16.90;99.90
14893;DHT22;7538;53.626;9.906;2023-08-21T03:08:47;16.90;99.90
14893;DHT22;7538;53.626;9.906;2023-08-21T03:11:14;17.10;99.90
14893;DHT22;7538;53.626;9.906;2023-08-21T03:13:41;16.90;99.90
14893;DHT22;7538;53.626;9.906;2023-08-21T03:16:08;16.90;99.90
14893;DHT22;7538;53.626;9.906;2023-08-21T03:18:54;17.00;99.90
14893;DHT22;7538;53.626;9.906;2023-08-21T03:21:22;16.90;99.90
14893;DHT22;7538;53.626;9.906;2023-08-21T03:23:54;16.90;99.90
14893;DHT22;7538;53.626;9.906;2023-08-21T03:26:20;17.00;99.90
14893;DHT22;7538;53.626;9.906;2023-08-21T03:28:47;16.90;99.90
14893;DHT22;7538;53.626;9.906;2023-08-21T03:31:14;17.00;99.90
14893;DHT22;7538;53.626;9.906;2023-08-21T03:33:41;17.00;99.90
14893;DHT22;7538;53.626;9.906;2023-08-21T03:36:07;16.90;99.90
14893;DHT22;7538;53.626;9.906;2023-08-21T03:38:34;17.00;99.90
14893;DHT22;7538;53.626;9.906;2023-08-21T03:41:03;17.00;99.90
14893;DHT22;7538;53.626;9.906;2023-08-21T03:43:30;16.90;99.90
14893;DHT22;7538;53.626;9.906;2023-08-21T03:45:57;16.90;99.90
14893;DHT22;7538;53.626;9.906;2023-08-21T03:48:24;16.90;99.90
14893;DHT22;7538;53.626;9.906;2023-08-21T03:50:51;16.90;99.90
14893;DHT22;7538;53.626;9.906;2023-08-21T03:53:18;16.80;99.90
14893;DHT22;7538;53.626;9.906;2023-08-21T03:55:45;16.90;99.90
14893;DHT22;7538;53.626;9.906;2023-08-21T03:58:13;16.90;99.90
14893;DHT22;7538;53.626;9.906;2023-08-21T04:00:40;17.00;99.90
14893;DHT22;7538;53.626;9.906;2023-08-21T04:03:07;16.90;99.90
14893;DHT22;7538;53.626;9.906;2023-08-21T04:05:34;16.90;99.90
14893;DHT22;7538;53.626;9.906;2023-08-21T04:08:00;17.00;99.90
14893;DHT22;7538;53.626;9.906;2023-08-21T04:10:27;16.90;99.90
14893;DHT22;7538;53.626;9.906;2023-08-21T04:12:54;16.90;99.90
14893;DHT22;7538;53.626;9.906;2023-08-21T04:15:22;16.90;99.90
14893;DHT22;7538;53.626;9.906;2023-08-21T04:17:49;16.90;99.90
14893;DHT22;7538;53.626;9.906;2023-08-21T04:20:15;16.90;99.90
14893;DHT22;7538;53.626;9.906;2023-08-21T04:22:42;16.80;99.90
14893;DHT22;7538;53.626;9.906;2023-08-21T04:25:09;16.90;99.90
14893;DHT22;7538;53.626;9.906;2023-08-21T04:27:36;16.80;99.90
14893;DHT22;7538;53.626;9.906;2023-08-21T04:30:04;16.90;99.90
14893;DHT22;7538;53.626;9.906;2023-08-21T04:32:32;16.90;99.90
14893;DHT22;7538;53.626;9.906;2023-08-21T04:34:59;16.90;99.90
14893;DHT22;7538;53.626;9.906;2023-08-21T04:37:26;17.00;99.90
14893;DHT22;7538;53.626;9.906;2023-08-21T04:39:53;17.00;99.90
14893;DHT22;7538;53.626;9.906;2023-08-21T04:42:21;17.00;99.90
14893;DHT22;7538;53.626;9.906;2023-08-21T04:44:48;17.00;99.90
14893;DHT22;7538;53.626;9.906;2023-08-21T04:47:19;17.10;99.90
14893;DHT22;7538;53.626;9.906;2023-08-21T04:49:47;17.10;99.90
14893;DHT22;7538;53.626;9.906;2023-08-21T04:52:14;17.10;99.90
14893;DHT22;7538;53.626;9.906;2023-08-21T04:54:41;17.20;99.90
14893;DHT22;7538;53.626;9.906;2023-08-21T04:57:08;17.20;99.90
14893;DHT22;7538;53.626;9.906;2023-08-21T04:59:35;17.30;99.90
14893;DHT22;7538;53.626;9.906;2023-08-21T05:02:02;17.30;99.90
14893;DHT22;7538;53.626;9.906;2023-08-21T05:04:29;17.40;99.90
14893;DHT22;7538;53.626;9.906;2023-08-21T05:06:57;17.50;99.90
14893;DHT22;7538;53.626;9.906;2023-08-21T05:09:24;17.50;99.90
14893;DHT22;7538;53.626;9.906;2023-08-21T05:11:51;17.60;99.90
14893;DHT22;7538;53.626;9.906;2023-08-21T05:14:18;17.70;99.90
14893;DHT22;7538;53.626;9.906;2023-08-21T05:16:45;17.70;99.90
14893;DHT22;7538;53.626;9.906;2023-08-21T05:19:12;17.80;99.90
14893;DHT22;7538;53.626;9.906;2023-08-21T05:21:38;17.90;99.90
14893;DHT22;7538;53.626;9.906;2023-08-21T05:24:07;18.00;99.90
14893;DHT22;7538;53.626;9.906;2023-08-21T05:26:35;18.10;99.90
14893;DHT22;7538;53.626;9.906;2023-08-21T05:29:02;18.20;99.90
14893;DHT22;7538;53.626;9.906;2023-08-21T05:31:29;18.30;99.90
14893;DHT22;7538;53.626;9.906;2023-08-21T05:33:56;18.40;99.90
14893;DHT22;7538;53.626;9.906;2023-08-21T05:36:23;18.50;99.90
14893;DHT22;7538;53.626;9.906;2023-08-21T05:38:49;18.60;99.90
14893;DHT22;7538;53.626;9.906;2023-08-21T05:41:18;18.70;99.90
14893;DHT22;7538;53.626;9.906;2023-08-21T05:43:45;18.80;99.90
14893;DHT22;7538;53.626;9.906;2023-08-21T05:46:13;18.90;99.90
14893;DHT22;7538;53.626;9.906;2023-08-21T05:48:39;19.00;99.90
14893;DHT22;7538;53.626;9.906;2023-08-21T05:51:06;19.00;99.90
14893;DHT22;7538;53.626;9.906;2023-08-21T05:53:33;19.20;99.90
14893;DHT22;7538;53.626;9.906;2023-08-21T05:56:00;19.30;99.90
14893;DHT22;7538;53.626;9.906;2023-08-21T05:58:28;19.50;99.90
14893;DHT22;7538;53.626;9.906;2023-08-21T06:00:57;19.60;99.90
14893;DHT22;7538;53.626;9.906;2023-08-21T06:03:23;19.60;99.90
14893;DHT22;7538;53.626;9.906;2023-08-21T06:05:50;19.70;99.90
14893;DHT22;7538;53.626;9.906;2023-08-21T06:08:17;19.80;99.90
14893;DHT22;7538;53.626;9.906;2023-08-21T06:10:44;20.10;99.90
14893;DHT22;7538;53.626;9.906;2023-08-21T06:13:11;20.40;99.90
14893;DHT22;7538;53.626;9.906;2023-08-21T06:15:39;20.80;99.90
14893;DHT22;7538;53.626;9.906;2023-08-21T06:18:06;21.40;99.90
14893;DHT22;7538;53.626;9.906;2023-08-21T06:20:33;24.80;99.90
14893;DHT22;7538;53.626;9.906;2023-08-21T06:22:59;23.00;99.90
14893;DHT22;7538;53.626;9.906;2023-08-21T06:25:26;24.80;99.90
14893;DHT22;7538;53.626;9.906;2023-08-21T06:33:55;30.80;93.70
14893;DHT22;7538;53.626;9.906;2023-08-21T06:36:21;32.20;88.90
14893;DHT22;7538;53.626;9.906;2023-08-21T06:38:48;33.60;80.30
14893;DHT22;7538;53.626;9.906;2023-08-21T06:41:15;34.60;71.30
14893;DHT22;7538;53.626;9.906;2023-08-21T06:43:42;35.20;65.00
14893;DHT22;7538;53.626;9.906;2023-08-21T06:46:08;35.80;63.80
14893;DHT22;7538;53.626;9.906;2023-08-21T06:48:38;36.00;59.50
14893;DHT22;7538;53.626;9.906;2023-08-21T06:51:07;35.60;57.20
14893;DHT22;7538;53.626;9.906;2023-08-21T06:53:34;35.50;58.20
14893;DHT22;7538;53.626;9.906;2023-08-21T06:56:01;35.80;57.30
14893;DHT22;7538;53.626;9.906;2023-08-21T06:58:28;36.10;56.40
14893;DHT22;7538;53.626;9.906;2023-08-21T07:00:55;36.80;55.00
14893;DHT22;7538;53.626;9.906;2023-08-21T07:03:22;37.20;53.60
14893;DHT22;7538;53.626;9.906;2023-08-21T07:05:53;37.60;51.80
14893;DHT22;7538;53.626;9.906;2023-08-21T07:08:22;37.50;50.90
14893;DHT22;7538;53.626;9.906;2023-08-21T07:10:49;37.70;50.30
14893;DHT22;7538;53.626;9.906;2023-08-21T07:13:15;37.70;49.40
14893;DHT22;7538;53.626;9.906;2023-08-21T07:15:42;37.90;49.40
14893;DHT22;7538;53.626;9.906;2023-08-21T07:18:09;38.50;48.00
14893;DHT22;7538;53.626;9.906;2023-08-21T07:20:36;38.60;46.90
14893;DHT22;7538;53.626;9.906;2023-08-21T07:23:03;38.30;46.10
14893;DHT22;7538;53.626;9.906;2023-08-21T07:25:31;37.50;46.90
14893;DHT22;7538;53.626;9.906;2023-08-21T07:27:58;36.50;47.60
14893;DHT22;7538;53.626;9.906;2023-08-21T07:30:25;36.20;49.90
14893;DHT22;7538;53.626;9.906;2023-08-21T07:32:53;37.00;50.20
14893;DHT22;7538;53.626;9.906;2023-08-21T07:35:19;37.80;48.40
14893;DHT22;7538;53.626;9.906;2023-08-21T07:37:47;38.50;46.30
14893;DHT22;7538;53.626;9.906;2023-08-21T07:40:14;38.70;45.20
14893;DHT22;7538;53.626;9.906;2023-08-21T07:42:42;38.30;45.40
14893;DHT22;7538;53.626;9.906;2023-08-21T07:45:09;38.70;45.60
14893;DHT22;7538;53.626;9.906;2023-08-21T07:47:36;38.80;43.90
14893;DHT22;7538;53.626;9.906;2023-08-21T07:50:04;38.90;43.60
14893;DHT22;7538;53.626;9.906;2023-08-21T07:52:30;38.70;43.20
14893;DHT22;7538;53.626;9.906;2023-08-21T07:54:57;38.50;44.30
14893;DHT22;7538;53.626;9.906;2023-08-21T07:57:26;38.70;44.20
14893;DHT22;7538;53.626;9.906;2023-08-21T07:59:54;38.90;43.90
14893;DHT22;7538;53.626;9.906;2023-08-21T08:02:22;38.60;43.00
14893;DHT22;7538;53.626;9.906;2023-08-21T08:04:49;38.10;43.30
14893;DHT22;7538;53.626;9.906;2023-08-21T08:07:16;38.10;43.50
14893;DHT22;7538;53.626;9.906;2023-08-21T08:09:43;38.40;42.30
14893;DHT22;7538;53.626;9.906;2023-08-21T08:12:10;38.80;42.00
14893;DHT22;7538;53.626;9.906;2023-08-21T08:14:38;39.10;41.10
14893;DHT22;7538;53.626;9.906;2023-08-21T08:17:06;39.10;41.30
14893;DHT22;7538;53.626;9.906;2023-08-21T08:19:33;38.80;40.90
14893;DHT22;7538;53.626;9.906;2023-08-21T08:22:00;39.00;41.80
14893;DHT22;7538;53.626;9.906;2023-08-21T08:24:27;39.60;41.00
14893;DHT22;7538;53.626;9.906;2023-08-21T08:26:54;39.80;40.30
14893;DHT22;7538;53.626;9.906;2023-08-21T08:29:21;40.30;39.40
14893;DHT22;7538;53.626;9.906;2023-08-21T08:31:47;40.60;38.60
14893;DHT22;7538;53.626;9.906;2023-08-21T08:34:16;40.70;37.80
14893;DHT22;7538;53.626;9.906;2023-08-21T08:36:45;40.70;37.70
14893;DHT22;7538;53.626;9.906;2023-08-21T08:39:12;40.60;36.90
14893;DHT22;7538;53.626;9.906;2023-08-21T08:41:48;40.70;37.10
14893;DHT22;7538;53.626;9.906;2023-08-21T08:44:16;41.20;37.40
14893;DHT22;7538;53.626;9.906;2023-08-21T08:46:43;41.50;35.80
14893;DHT22;7538;53.626;9.906;2023-08-21T08:49:10;41.80;35.20
14893;DHT22;7538;53.626;9.906;2023-08-21T08:51:40;41.80;34.60
14893;DHT22;7538;53.626;9.906;2023-08-21T08:54:09;41.50;34.40
14893;DHT22;7538;53.626;9.906;2023-08-21T08:56:37;41.40;35.50
14893;DHT22;7538;53.626;9.906;2023-08-21T08:59:07;41.30;35.00
14893;DHT22;7538;53.626;9.906;2023-08-21T09:01:34;41.10;34.70
14893;DHT22;7538;53.626;9.906;2023-08-21T09:04:02;41.30;34.80
14893;DHT22;7538;53.626;9.906;2023-08-21T09:06:29;41.50;34.30
14893;DHT22;7538;53.626;9.906;2023-08-21T09:08:57;41.60;34.70
14893;DHT22;7538;53.626;9.906;2023-08-21T09:11:25;41.50;34.80
14893;DHT22;7538;53.626;9.906;2023-08-21T09:13:53;40.90;33.30
14893;DHT22;7538;53.626;9.906;2023-08-21T09:16:21;40.30;33.80
14893;DHT22;7538;53.626;9.906;2023-08-21T09:18:48;40.00;35.20
14893;DHT22;7538;53.626;9.906;2023-08-21T09:21:18;39.30;34.60
14893;DHT22;7538;53.626;9.906;2023-08-21T09:23:45;39.10;35.50
14893;DHT22;7538;53.626;9.906;2023-08-21T09:26:19;39.00;35.50
14893;DHT22;7538;53.626;9.906;2023-08-21T09:28:46;39.10;35.80
14893;DHT22;7538;53.626;9.906;2023-08-21T09:31:14;39.10;35.90
14893;DHT22;7538;53.626;9.906;2023-08-21T09:33:41;39.00;35.50
14893;DHT22;7538;53.626;9.906;2023-08-21T09:36:09;39.00;35.70
14893;DHT22;7538;53.626;9.906;2023-08-21T09:38:38;38.60;37.00
14893;DHT22;7538;53.626;9.906;2023-08-21T09:41:05;38.30;37.10
14893;DHT22;7538;53.626;9.906;2023-08-21T09:43:41;37.70;36.40
14893;DHT22;7538;53.626;9.906;2023-08-21T09:46:08;36.60;37.70
14893;DHT22;7538;53.626;9.906;2023-08-21T09:48:35;35.50;39.50
14893;DHT22;7538;53.626;9.906;2023-08-21T09:51:03;35.10;40.50
14893;DHT22;7538;53.626;9.906;2023-08-21T09:53:30;35.10;41.30
14893;DHT22;7538;53.626;9.906;2023-08-21T09:55:58;35.20;41.50
14893;DHT22;7538;53.626;9.906;2023-08-21T09:58:28;35.30;41.70
14893;DHT22;7538;53.626;9.906;2023-08-21T10:00:58;35.70;41.30
14893;DHT22;7538;53.626;9.906;2023-08-21T10:03:26;36.10;40.80
14893;DHT22;7538;53.626;9.906;2023-08-21T10:05:55;35.70;39.60
14893;DHT22;7538;53.626;9.906;2023-08-21T10:08:25;35.00;40.50
14893;DHT22;7538;53.626;9.906;2023-08-21T10:10:52;34.50;41.70
14893;DHT22;7538;53.626;9.906;2023-08-21T10:13:19;34.40;41.90
14893;DHT22;7538;53.626;9.906;2023-08-21T10:15:46;34.30;42.50
14893;DHT22;7538;53.626;9.906;2023-08-21T10:18:22;34.10;42.80
14893;DHT22;7538;53.626;9.906;2023-08-21T10:20:50;33.60;43.20
14893;DHT22;7538;53.626;9.906;2023-08-21T10:23:25;33.40;42.90
14893;DHT22;7538;53.626;9.906;2023-08-21T10:25:56;33.30;43.50
14893;DHT22;7538;53.626;9.906;2023-08-21T10:28:23;33.20;43.60
14893;DHT22;7538;53.626;9.906;2023-08-21T10:30:50;33.00;43.90
14893;DHT22;7538;53.626;9.906;2023-08-21T10:33:17;32.80;43.20
14893;DHT22;7538;53.626;9.906;2023-08-21T10:35:46;32.70;44.10
14893;DHT22;7538;53.626;9.906;2023-08-21T10:38:14;32.60;44.60
14893;DHT22;7538;53.626;9.906;2023-08-21T10:41:06;32.70;45.20
14893;DHT22;7538;53.626;9.906;2023-08-21T10:43:39;32.80;45.00
14893;DHT22;7538;53.626;9.906;2023-08-21T10:46:09;32.90;45.00
14893;DHT22;7538;53.626;9.906;2023-08-21T10:48:36;32.60;44.80
14893;DHT22;7538;53.626;9.906;2023-08-21T10:51:06;32.60;46.10
14893;DHT22;7538;53.626;9.906;2023-08-21T10:53:33;32.80;46.90
14893;DHT22;7538;53.626;9.906;2023-08-21T10:56:04;33.00;45.90
14893;DHT22;7538;53.626;9.906;2023-08-21T10:58:34;33.30;45.60
14893;DHT22;7538;53.626;9.906;2023-08-21T11:01:01;33.40;45.40
14893;DHT22;7538;53.626;9.906;2023-08-21T11:03:28;33.50;44.60
14893;DHT22;7538;53.626;9.906;2023-08-21T11:06:09;33.60;44.80
14893;DHT22;7538;53.626;9.906;2023-08-21T11:08:36;33.60;44.60
14893;DHT22;7538;53.626;9.906;2023-08-21T11:11:04;33.50;44.40
14893;DHT22;7538;53.626;9.906;2023-08-21T11:13:32;32.90;45.20
14893;DHT22;7538;53.626;9.906;2023-08-21T11:16:03;32.80;46.30
14893;DHT22;7538;53.626;9.906;2023-08-21T11:18:31;32.60;46.60
14893;DHT22;7538;53.626;9.906;2023-08-21T11:21:07;32.60;46.50
14893;DHT22;7538;53.626;9.906;2023-08-21T11:23:35;32.40;46.90
14893;DHT22;7538;53.626;9.906;2023-08-21T11:26:03;32.40;46.90
14893;DHT22;7538;53.626;9.906;2023-08-21T11:28:30;32.30;46.30
14893;DHT22;7538;53.626;9.906;2023-08-21T11:30:59;32.10;48.10
14893;DHT22;7538;53.626;9.906;2023-08-21T11:33:26;31.60;47.40
14893;DHT22;7538;53.626;9.906;2023-08-21T11:35:54;31.20;48.80
14893;DHT22;7538;53.626;9.906;2023-08-21T11:38:25;30.60;50.00
14893;DHT22;7538;53.626;9.906;2023-08-21T11:40:54;30.10;51.50
14893;DHT22;7538;53.626;9.906;2023-08-21T11:43:21;29.30;53.50
14893;DHT22;7538;53.626;9.906;2023-08-21T11:45:47;29.10;55.80
14893;DHT22;7538;53.626;9.906;2023-08-21T11:48:14;28.90;57.70
14893;DHT22;7538;53.626;9.906;2023-08-21T11:50:41;28.80;57.70
14893;DHT22;7538;53.626;9.906;2023-08-21T11:53:08;28.80;57.20
14893;DHT22;7538;53.626;9.906;2023-08-21T11:55:38;28.70;58.50
14893;DHT22;7538;53.626;9.906;2023-08-21T11:58:06;28.70;58.70
14893;DHT22;7538;53.626;9.906;2023-08-21T12:00:32;28.80;59.10
14893;DHT22;7538;53.626;9.906;2023-08-21T12:03:00;28.70;58.60
14893;DHT22;7538;53.626;9.906;2023-08-21T12:05:28;28.70;58.90
14893;DHT22;7538;53.626;9.906;2023-08-21T12:07:56;28.60;59.30
14893;DHT22;7538;53.626;9.906;2023-08-21T12:10:23;28.70;59.00
14893;DHT22;7538;53.626;9.906;2023-08-21T12:12:52;28.60;60.00
14893;DHT22;7538;53.626;9.906;2023-08-21T12:15:19;28.60;59.40
14893;DHT22;7538;53.626;9.906;2023-08-21T12:17:45;28.60;58.80
14893;DHT22;7538;53.626;9.906;2023-08-21T12:20:12;28.50;61.80
14893;DHT22;7538;53.626;9.906;2023-08-21T12:22:39;28.20;59.50
14893;DHT22;7538;53.626;9.906;2023-08-21T12:25:08;28.00;60.60
14893;DHT22;7538;53.626;9.906;2023-08-21T12:27:35;27.90;61.10
14893;DHT22;7538;53.626;9.906;2023-08-21T12:30:04;28.00;61.20
14893;DHT22;7538;53.626;9.906;2023-08-21T12:32:31;28.00;61.00
14893;DHT22;7538;53.626;9.906;2023-08-21T12:34:58;28.10;59.90
14893;DHT22;7538;53.626;9.906;2023-08-21T12:37:25;28.20;58.40
14893;DHT22;7538;53.626;9.906;2023-08-21T12:39:53;28.10;59.70
14893;DHT22;7538;53.626;9.906;2023-08-21T12:42:20;28.00;59.50
14893;DHT22;7538;53.626;9.906;2023-08-21T12:44:47;27.90;58.70
14893;DHT22;7538;53.626;9.906;2023-08-21T12:47:15;27.70;59.90
14893;DHT22;7538;53.626;9.906;2023-08-21T12:49:41;27.80;60.50
14893;DHT22;7538;53.626;9.906;2023-08-21T12:52:08;27.80;59.20
14893;DHT22;7538;53.626;9.906;2023-08-21T12:54:37;27.80;59.60
14893;DHT22;7538;53.626;9.906;2023-08-21T12:57:04;27.80;58.90
14893;DHT22;7538;53.626;9.906;2023-08-21T12:59:31;27.90;58.70
14893;DHT22;7538;53.626;9.906;2023-08-21T13:01:59;27.90;58.10
14893;DHT22;7538;53.626;9.906;2023-08-21T13:04:28;27.90;56.90
14893;DHT22;7538;53.626;9.906;2023-08-21T13:06:55;28.00;59.60
14893;DHT22;7538;53.626;9.906;2023-08-21T13:09:21;27.90;58.90
14893;DHT22;7538;53.626;9.906;2023-08-21T13:11:49;27.90;60.40
14893;DHT22;7538;53.626;9.906;2023-08-21T13:14:16;27.90;59.30
14893;DHT22;7538;53.626;9.906;2023-08-21T13:16:43;27.90;59.10
14893;DHT22;7538;53.626;9.906;2023-08-21T13:19:09;27.80;57.40
14893;DHT22;7538;53.626;9.906;2023-08-21T13:21:37;27.90;55.90
14893;DHT22;7538;53.626;9.906;2023-08-21T13:24:04;27.70;56.20
14893;DHT22;7538;53.626;9.906;2023-08-21T13:26:32;27.50;56.30
14893;DHT22;7538;53.626;9.906;2023-08-21T13:28:59;27.50;56.20
14893;DHT22;7538;53.626;9.906;2023-08-21T13:31:26;27.30;56.40
14893;DHT22;7538;53.626;9.906;2023-08-21T13:33:54;27.20;57.00
14893;DHT22;7538;53.626;9.906;2023-08-21T13:36:21;27.20;57.50
14893;DHT22;7538;53.626;9.906;2023-08-21T13:38:49;27.10;55.00
14893;DHT22;7538;53.626;9.906;2023-08-21T13:41:16;26.90;53.60
14893;DHT22;7538;53.626;9.906;2023-08-21T13:43:42;26.80;55.20
14893;DHT22;7538;53.626;9.906;2023-08-21T13:46:09;26.80;55.40
14893;DHT22;7538;53.626;9.906;2023-08-21T13:48:36;26.70;54.90
14893;DHT22;7538;53.626;9.906;2023-08-21T13:51:03;26.70;56.80
14893;DHT22;7538;53.626;9.906;2023-08-21T13:53:30;26.80;55.30
14893;DHT22;7538;53.626;9.906;2023-08-21T13:55:58;26.80;54.40
14893;DHT22;7538;53.626;9.906;2023-08-21T13:58:26;26.90;54.40
14893;DHT22;7538;53.626;9.906;2023-08-21T14:00:52;26.80;53.40
14893;DHT22;7538;53.626;9.906;2023-08-21T14:03:21;26.80;53.50
14893;DHT22;7538;53.626;9.906;2023-08-21T14:05:48;26.80;53.70
14893;DHT22;7538;53.626;9.906;2023-08-21T14:08:14;26.90;54.20
14893;DHT22;7538;53.626;9.906;2023-08-21T14:16:40;27.20;54.60
14893;DHT22;7538;53.626;9.906;2023-08-21T14:19:07;27.10;54.20
14893;DHT22;7538;53.626;9.906;2023-08-21T14:21:34;27.00;54.70
14893;DHT22;7538;53.626;9.906;2023-08-21T14:24:00;27.00;55.70
14893;DHT22;7538;53.626;9.906;2023-08-21T14:26:28;27.00;56.00
14893;DHT22;7538;53.626;9.906;2023-08-21T14:28:54;29.90;58.20
14893;DHT22;7538;53.626;9.906;2023-08-21T14:31:21;26.90;50.20
14893;DHT22;7538;53.626;9.906;2023-08-21T14:33:49;26.80;51.40
14893;DHT22;7538;53.626;9.906;2023-08-21T14:36:16;26.70;52.30
14893;DHT22;7538;53.626;9.906;2023-08-21T14:38:43;26.50;52.20
14893;DHT22;7538;53.626;9.906;2023-08-21T14:41:10;26.40;53.40
14893;DHT22;7538;53.626;9.906;2023-08-21T14:43:37;26.30;54.00
14893;DHT22;7538;53.626;9.906;2023-08-21T14:46:04;26.20;54.30
14893;DHT22;7538;53.626;9.906;2023-08-21T14:48:30;26.20;55.00
14893;DHT22;7538;53.626;9.906;2023-08-21T14:50:59;26.30;57.10
14893;DHT22;7538;53.626;9.906;2023-08-21T14:53:25;26.30;51.40
14893;DHT22;7538;53.626;9.906;2023-08-21T14:55:52;26.20;50.70
14893;DHT22;7538;53.626;9.906;2023-08-21T14:58:19;26.30;51.40
14893;DHT22;7538;53.626;9.906;2023-08-21T15:00:46;26.20;50.50
14893;DHT22;7538;53.626;9.906;2023-08-21T15:05:48;26.30;51.00
14893;DHT22;7538;53.626;9.906;2023-08-21T15:08:16;26.30;49.70
14893;DHT22;7538;53.626;9.906;2023-08-21T15:10:43;26.30;49.30
14893;DHT22;7538;53.626;9.906;2023-08-21T15:13:10;28.00;52.10
14893;DHT22;7538;53.626;9.906;2023-08-21T15:15:36;26.10;51.30
14893;DHT22;7538;53.626;9.906;2023-08-21T15:18:03;26.10;52.00
14893;DHT22;7538;53.626;9.906;2023-08-21T15:20:30;26.20;53.80
14893;DHT22;7538;53.626;9.906;2023-08-21T15:22:57;24.10;50.50
14893;DHT22;7538;53.626;9.906;2023-08-21T15:25:25;25.90;50.20
14893;DHT22;7538;53.626;9.906;2023-08-21T15:27:52;25.90;51.60
14893;DHT22;7538;53.626;9.906;2023-08-21T15:30:19;25.90;52.60
14893;DHT22;7538;53.626;9.906;2023-08-21T15:32:45;25.90;53.60
14893;DHT22;7538;53.626;9.906;2023-08-21T15:35:13;25.90;54.30
14893;DHT22;7538;53.626;9.906;2023-08-21T15:37:40;25.80;53.00
14893;DHT22;7538;53.626;9.906;2023-08-21T15:40:08;25.80;52.90
14893;DHT22;7538;53.626;9.906;2023-08-21T15:42:36;25.90;53.60
14893;DHT22;7538;53.626;9.906;2023-08-21T15:45:04;25.90;55.50
14893;DHT22;7538;53.626;9.906;2023-08-21T15:47:32;26.00;58.10
14893;DHT22;7538;53.626;9.906;2023-08-21T15:49:58;27.20;57.90
14893;DHT22;7538;53.626;9.906;2023-08-21T15:52:25;26.10;57.50
14893;DHT22;7538;53.626;9.906;2023-08-21T15:54:52;26.10;56.40
14893;DHT22;7538;53.626;9.906;2023-08-21T15:57:19;26.00;56.20
14893;DHT22;7538;53.626;9.906;2023-08-21T15:59:48;23.60;55.70
14893;DHT22;7538;53.626;9.906;2023-08-21T16:02:14;25.90;55.90
14893;DHT22;7538;53.626;9.906;2023-08-21T16:04:41;25.90;56.70
14893;DHT22;7538;53.626;9.906;2023-08-21T16:07:08;25.70;56.30
14893;DHT22;7538;53.626;9.906;2023-08-21T16:09:35;25.70;58.10
14893;DHT22;7538;53.626;9.906;2023-08-21T16:12:03;25.80;58.00